Time;durP1;ratioP1;P1;durP2;ratioP2;P2;SDS_P1;SDS_P2;PMS_P1;PMS_P2;Temp;Humidity;BMP_temperature;BMP_pressure;BME280_temperature;BME280_humidity;BME280_pressure;Samples;Min_cycle;Max_cycle;Signal;HPM_P1;HPM_P2
2021/08/07 00:00:45;;;;;;;0.30;0.20;;;18.80;79.30;;;;;;5107587;28;20100;-78
2021/08/07 00:03:16;;;;;;;0.73;0.30;;;18.70;79.60;;;;;;5101840;28;20043;-77
2021/08/07 00:05:43;;;;;;;1.17;0.40;;;18.60;79.70;;;;;;5094659;28;20085;-78
2021/08/07 00:08:10;;;;;;;1.30;0.30;;;18.50;80.00;;;;;;5111609;28;20189;-78
2021/08/07 00:10:37;;;;;;;0.25;0.20;;;18.50;80.20;;;;;;5100723;28;20069;-78
2021/08/07 00:13:05;;;;;;;1.17;0.25;;;18.50;80.30;;;;;;5093311;28;20048;-77
2021/08/07 00:15:32;;;;;;;1.33;0.30;;;18.40;80.40;;;;;;5110993;28;20047;-77
2021/08/07 00:17:59;;;;;;;0.98;0.30;;;18.40;80.50;;;;;;5078830;28;20048;-78
2021/08/07 00:20:27;;;;;;;0.47;0.30;;;18.40;80.60;;;;;;5074868;28;20060;-78
2021/08/07 00:22:54;;;;;;;1.13;0.57;;;18.40;80.70;;;;;;5110509;28;20101;-77
2021/08/07 00:25:27;;;;;;;0.50;0.30;;;18.40;80.70;;;;;;5091926;28;20552;-78
2021/08/07 00:27:56;;;;;;;1.35;0.30;;;18.40;80.70;;;;;;5076179;28;20118;-78
2021/08/07 00:30:23;;;;;;;1.55;0.30;;;18.40;80.80;;;;;;5061705;28;20509;-78
2021/08/07 00:32:50;;;;;;;1.13;0.30;;;18.40;80.90;;;;;;5080338;28;20032;-78
2021/08/07 00:35:17;;;;;;;0.57;0.20;;;18.40;80.80;;;;;;5111804;28;20093;-78
2021/08/07 00:37:45;;;;;;;1.38;0.40;;;18.40;80.90;;;;;;5114720;28;20454;-78
2021/08/07 00:40:14;;;;;;;0.50;0.20;;;18.40;80.90;;;;;;5101912;28;20040;-78
2021/08/07 00:42:43;;;;;;;1.42;0.40;;;18.40;80.90;;;;;;5115746;28;20046;-78
2021/08/07 00:45:21;;;;;;;0.85;0.30;;;18.40;81.00;;;;;;5114652;28;20036;-77
2021/08/07 00:47:48;;;;;;;1.25;0.30;;;18.40;81.10;;;;;;5110744;27;20122;-78
2021/08/07 00:50:16;;;;;;;0.40;0.30;;;18.30;81.00;;;;;;5088229;28;20036;-78
2021/08/07 00:52:46;;;;;;;0.98;0.32;;;18.30;81.10;;;;;;5076772;28;20093;-78
2021/08/07 00:55:24;;;;;;;0.80;0.40;;;18.20;81.90;;;;;;5097782;28;20483;-78
2021/08/07 00:57:55;;;;;;;1.60;0.35;;;18.20;81.30;;;;;;5096356;28;20039;-78
2021/08/07 01:00:24;;;;;;;1.33;0.30;;;18.20;81.50;;;;;;5114142;28;20059;-78
2021/08/07 01:03:26;;;;;;;0.82;0.38;;;18.20;81.60;;;;;;5100267;27;20517;-78
2021/08/07 01:06:23;;;;;;;2.08;0.25;;;18.20;81.40;;;;;;5101538;28;20039;-78
2021/08/07 01:09:21;;;;;;;0.55;0.30;;;18.20;81.40;;;;;;5114542;28;20372;-78
2021/08/07 01:12:08;;;;;;;1.15;0.38;;;18.20;81.40;;;;;;5101871;28;20062;-78
2021/08/07 01:14:43;;;;;;;1.95;0.40;;;18.20;81.50;;;;;;5109611;28;20048;-78
2021/08/07 01:17:24;;;;;;;1.35;0.40;;;18.20;81.70;;;;;;5114105;28;20134;-78
2021/08/07 01:20:11;;;;;;;0.98;0.30;;;18.20;81.70;;;;;;5101889;28;20046;-78
2021/08/07 01:23:21;;;;;;;1.98;0.45;;;18.10;81.70;;;;;;5132758;27;20038;-78
2021/08/07 01:26:24;;;;;;;1.02;0.38;;;18.20;81.80;;;;;;5116355;27;20040;-77
2021/08/07 01:29:05;;;;;;;1.10;0.40;;;18.10;81.80;;;;;;5099295;28;20552;-77
2021/08/07 01:31:49;;;;;;;0.60;0.30;;;18.20;81.90;;;;;;5102508;28;20517;-78
2021/08/07 01:34:21;;;;;;;0.60;0.30;;;18.20;82.00;;;;;;5114004;28;20288;-78
2021/08/07 01:36:49;;;;;;;1.85;0.30;;;18.20;82.00;;;;;;5080462;28;20142;-77
2021/08/07 01:39:25;;;;;;;0.95;0.40;;;18.20;82.10;;;;;;5113953;28;20144;-78
2021/08/07 01:41:53;;;;;;;0.82;0.20;;;18.20;82.10;;;;;;5101074;28;20040;-77
2021/08/07 01:44:23;;;;;;;1.02;0.40;;;18.20;82.20;;;;;;5122230;27;20047;-78
2021/08/07 01:47:09;;;;;;;0.90;0.32;;;18.20;82.20;;;;;;5087166;27;20150;-77
2021/08/07 01:49:52;;;;;;;0.75;0.30;;;18.20;82.20;;;;;;5114825;27;20040;-77
2021/08/07 01:52:27;;;;;;;0.97;0.40;;;18.20;82.30;;;;;;5104350;28;20051;-77
2021/08/07 01:55:08;;;;;;;0.98;0.22;;;18.20;82.50;;;;;;5111315;28;20127;-77
2021/08/07 01:57:49;;;;;;;0.63;0.30;;;18.20;82.50;;;;;;5102753;28;20083;-78
2021/08/07 02:00:21;;;;;;;1.38;0.60;;;18.20;82.60;;;;;;5111941;27;20491;-77
2021/08/07 02:02:53;;;;;;;0.77;0.40;;;18.20;82.70;;;;;;5109345;27;20044;-78
2021/08/07 02:05:26;;;;;;;1.33;0.30;;;18.10;82.70;;;;;;5113532;28;20044;-77
2021/08/07 02:07:57;;;;;;;1.83;0.50;;;18.10;82.90;;;;;;5113696;28;20047;-77
2021/08/07 02:10:28;;;;;;;2.45;0.50;;;18.00;83.00;;;;;;5094070;28;20094;-77
2021/08/07 02:12:58;;;;;;;0.70;0.40;;;18.00;83.20;;;;;;5098341;28;20135;-78
2021/08/07 02:15:29;;;;;;;1.23;0.60;;;17.90;83.20;;;;;;5096666;28;20047;-77
2021/08/07 02:18:04;;;;;;;2.78;0.45;;;17.80;83.50;;;;;;5112988;28;20065;-78
2021/08/07 02:20:31;;;;;;;1.10;0.40;;;17.80;83.60;;;;;;5096588;28;20144;-78
2021/08/07 02:23:01;;;;;;;2.70;0.75;;;17.70;83.60;;;;;;5093959;28;20040;-78
2021/08/07 02:25:30;;;;;;;1.45;0.52;;;17.70;83.80;;;;;;5096044;28;20487;-78
2021/08/07 02:28:18;;;;;;;1.83;0.50;;;17.60;83.90;;;;;;5109505;27;20127;-77
2021/08/07 02:30:46;;;;;;;2.20;0.75;;;17.60;84.00;;;;;;5092608;28;20047;-78
2021/08/07 02:33:20;;;;;;;3.30;0.70;;;17.50;84.80;;;;;;5112829;28;20118;-77
2021/08/07 02:35:49;;;;;;;1.90;0.60;;;17.50;84.10;;;;;;5112888;28;20426;-77
2021/08/07 02:38:18;;;;;;;1.45;0.60;;;17.40;84.20;;;;;;5112756;27;20521;-78
2021/08/07 02:40:45;;;;;;;2.35;0.90;;;17.40;84.30;;;;;;5114133;28;20085;-78
2021/08/07 02:43:16;;;;;;;1.25;0.45;;;17.30;84.50;;;;;;5079418;28;20054;-77
2021/08/07 02:45:45;;;;;;;1.25;0.50;;;17.30;84.50;;;;;;5112830;28;20039;-78
2021/08/07 02:48:20;;;;;;;1.15;0.50;;;17.30;84.60;;;;;;5112711;28;20408;-78
2021/08/07 02:50:47;;;;;;;1.10;0.40;;;17.20;84.60;;;;;;5093115;28;20115;-78
2021/08/07 02:53:16;;;;;;;0.98;0.50;;;17.20;84.80;;;;;;5118329;27;20850;-77
2021/08/07 02:55:44;;;;;;;3.05;0.70;;;17.20;84.80;;;;;;5098683;28;20060;-78
2021/08/07 02:58:20;;;;;;;1.92;0.57;;;17.20;84.90;;;;;;5080870;28;20226;-78
2021/08/07 03:00:47;;;;;;;0.90;0.40;;;17.10;84.90;;;;;;5079573;28;20076;-77
2021/08/07 03:03:15;;;;;;;2.25;0.40;;;17.10;85.00;;;;;;5086413;28;20077;-78
2021/08/07 03:05:43;;;;;;;1.40;0.63;;;17.10;85.00;;;;;;5118638;27;20054;-78
2021/08/07 03:08:12;;;;;;;1.30;0.50;;;17.10;85.10;;;;;;5103231;28;20032;-78
2021/08/07 03:10:42;;;;;;;2.17;0.70;;;17.10;85.10;;;;;;5111697;28;20097;-78
2021/08/07 03:13:14;;;;;;;1.27;0.50;;;17.10;85.10;;;;;;5108141;27;20062;-77
2021/08/07 03:15:42;;;;;;;1.75;0.55;;;17.10;85.20;;;;;;5080812;28;20833;-77
2021/08/07 03:18:09;;;;;;;2.42;0.50;;;17.10;85.20;;;;;;5123072;27;20608;-77
2021/08/07 03:20:39;;;;;;;1.42;0.68;;;17.10;85.20;;;;;;5115369;28;20035;-77
2021/08/07 03:23:10;;;;;;;1.65;0.65;;;17.00;85.20;;;;;;5089992;28;20084;-78
2021/08/07 03:25:44;;;;;;;1.25;0.50;;;17.00;85.30;;;;;;5128448;27;20042;-78
2021/08/07 03:28:17;;;;;;;1.60;0.63;;;17.00;85.30;;;;;;5064412;28;20050;-77
2021/08/07 03:30:44;;;;;;;1.73;0.50;;;16.90;85.40;;;;;;5086282;28;20055;-78
2021/08/07 03:33:12;;;;;;;1.63;0.52;;;16.90;85.40;;;;;;5091660;28;20036;-78
2021/08/07 03:35:40;;;;;;;2.50;0.68;;;16.90;85.50;;;;;;5105838;28;20435;-78
2021/08/07 03:38:08;;;;;;;1.05;0.30;;;16.90;85.50;;;;;;5079799;28;20122;-78
2021/08/07 03:40:35;;;;;;;0.88;0.43;;;16.90;85.60;;;;;;5066260;28;20078;-78
2021/08/07 03:43:09;;;;;;;1.77;0.50;;;16.90;85.70;;;;;;5111277;28;20046;-78
2021/08/07 03:45:36;;;;;;;2.95;0.50;;;16.90;85.80;;;;;;5075115;28;20476;-78
2021/08/07 03:48:03;;;;;;;0.98;0.38;;;16.90;85.80;;;;;;5079062;28;20081;-78
2021/08/07 03:50:38;;;;;;;0.50;0.30;;;16.80;85.80;;;;;;5089573;28;20399;-78
2021/08/07 03:53:09;;;;;;;1.48;0.50;;;16.80;85.80;;;;;;5081570;28;20040;-78
2021/08/07 03:55:36;;;;;;;3.65;0.45;;;16.80;85.80;;;;;;5091886;28;20119;-78
2021/08/07 03:58:05;;;;;;;1.45;0.40;;;16.80;85.80;;;;;;5092952;28;20035;-78
2021/08/07 04:00:41;;;;;;;1.40;0.30;;;16.90;85.70;;;;;;5067575;28;20048;-77
2021/08/07 04:03:16;;;;;;;0.70;0.30;;;16.90;85.70;;;;;;5080295;28;20380;-78
2021/08/07 04:05:44;;;;;;;0.80;0.40;;;17.00;86.20;;;;;;5097035;28;20499;-78
2021/08/07 04:08:12;;;;;;;0.55;0.22;;;17.00;85.50;;;;;;5094753;28;20031;-78
2021/08/07 04:10:43;;;;;;;0.75;0.40;;;17.00;85.40;;;;;;5112408;28;20468;-78
2021/08/07 04:13:12;;;;;;;0.98;0.47;;;17.10;85.40;;;;;;5098920;28;20100;-78
2021/08/07 04:15:40;;;;;;;0.70;0.30;;;17.10;85.30;;;;;;5098752;28;20130;-78
2021/08/07 04:18:09;;;;;;;1.58;0.40;;;17.10;85.20;;;;;;5082885;28;20077;-78
2021/08/07 04:20:38;;;;;;;1.67;0.30;;;17.20;85.20;;;;;;5098542;28;20487;-78
2021/08/07 04:23:06;;;;;;;2.17;0.70;;;17.20;85.10;;;;;;5098356;28;20031;-78
2021/08/07 04:25:37;;;;;;;0.30;0.30;;;17.20;85.10;;;;;;5096569;28;20040;-78
2021/08/07 04:28:05;;;;;;;1.48;0.30;;;17.30;85.10;;;;;;5102205;28;20036;-78
2021/08/07 04:30:33;;;;;;;1.00;0.35;;;17.30;85.10;;;;;;5098702;28;20036;-78
2021/08/07 04:33:02;;;;;;;0.40;0.30;;;17.30;85.10;;;;;;5098963;28;20044;-78
2021/08/07 04:35:33;;;;;;;1.48;0.30;;;17.30;85.00;;;;;;5082743;28;20100;-77
2021/08/07 04:38:01;;;;;;;0.95;0.43;;;17.40;85.10;;;;;;5098358;28;20072;-78
2021/08/07 04:40:32;;;;;;;1.20;0.50;;;17.40;85.00;;;;;;5115034;28;20138;-78
2021/08/07 04:43:05;;;;;;;1.73;0.30;;;17.40;85.00;;;;;;5097094;28;20039;-78
2021/08/07 04:45:32;;;;;;;0.40;0.20;;;17.40;85.00;;;;;;5126698;27;20051;-78
2021/08/07 04:48:04;;;;;;;1.05;0.40;;;17.40;84.90;;;;;;5100918;28;20438;-78
2021/08/07 04:50:39;;;;;;;0.57;0.25;;;17.40;84.90;;;;;;5105132;28;20051;-78
2021/08/07 04:53:07;;;;;;;0.80;0.30;;;17.40;85.00;;;;;;5116022;28;20035;-78
2021/08/07 04:55:37;;;;;;;0.93;0.32;;;17.40;85.00;;;;;;5098469;28;20042;-78
2021/08/07 04:58:07;;;;;;;0.70;0.20;;;17.50;85.00;;;;;;5113448;28;20043;-78
2021/08/07 05:00:36;;;;;;;2.33;0.57;;;17.40;85.00;;;;;;5085793;28;20043;-78
2021/08/07 05:03:04;;;;;;;0.70;0.30;;;17.50;85.00;;;;;;5100180;28;20047;-78
2021/08/07 05:05:35;;;;;;;1.40;0.30;;;17.50;85.00;;;;;;5098466;28;20039;-78
2021/08/07 05:08:02;;;;;;;1.52;0.30;;;17.60;85.60;;;;;;5114199;28;20047;-78
2021/08/07 05:10:32;;;;;;;0.43;0.28;;;17.60;84.90;;;;;;5098516;28;20084;-78
2021/08/07 05:13:00;;;;;;;1.55;0.28;;;17.60;84.90;;;;;;5109282;28;20050;-78
2021/08/07 05:15:27;;;;;;;1.55;0.35;;;17.70;84.80;;;;;;5114020;28;20563;-78
2021/08/07 05:17:55;;;;;;;1.92;0.40;;;17.70;84.60;;;;;;5107498;28;20119;-78
2021/08/07 05:20:25;;;;;;;1.67;0.40;;;17.80;84.50;;;;;;5106991;28;20548;-78
2021/08/07 05:22:53;;;;;;;1.33;0.57;;;17.90;84.40;;;;;;5112802;28;20552;-78
2021/08/07 05:25:20;;;;;;;1.90;0.47;;;18.00;84.30;;;;;;5078205;28;20082;-79
2021/08/07 05:27:48;;;;;;;1.33;0.65;;;18.00;84.10;;;;;;5097008;28;20048;-78
2021/08/07 05:30:16;;;;;;;1.55;0.50;;;18.10;84.10;;;;;;5102480;27;20045;-78
2021/08/07 05:32:44;;;;;;;1.65;0.38;;;18.10;84.00;;;;;;5105848;28;20039;-78
2021/08/07 05:35:15;;;;;;;1.75;0.50;;;18.10;83.90;;;;;;5103747;28;20036;-79
2021/08/07 05:37:42;;;;;;;3.78;0.57;;;18.10;83.80;;;;;;5096450;28;20050;-78
2021/08/07 05:40:13;;;;;;;0.90;0.50;;;18.10;83.70;;;;;;5119897;27;20043;-78
2021/08/07 05:42:45;;;;;;;2.30;0.50;;;18.20;83.70;;;;;;5112923;28;20044;-78
2021/08/07 05:45:13;;;;;;;1.63;0.55;;;18.20;83.70;;;;;;5093488;27;20036;-78
2021/08/07 05:47:40;;;;;;;1.08;0.40;;;18.20;83.50;;;;;;5085369;28;20088;-77
2021/08/07 05:50:09;;;;;;;1.48;0.50;;;18.20;83.40;;;;;;5081094;28;20032;-78
2021/08/07 05:52:38;;;;;;;1.35;0.40;;;18.20;83.30;;;;;;5107831;27;20043;-78
2021/08/07 05:55:07;;;;;;;1.00;0.35;;;18.20;83.20;;;;;;5080340;28;20040;-78
2021/08/07 05:57:36;;;;;;;1.63;0.52;;;18.30;83.20;;;;;;5096525;28;20093;-78
2021/08/07 06:00:04;;;;;;;2.63;0.60;;;18.30;83.00;;;;;;5083814;28;20043;-78
2021/08/07 06:02:43;;;;;;;1.00;0.50;;;18.30;83.00;;;;;;5114253;27;20097;-78
2021/08/07 06:05:14;;;;;;;1.63;0.30;;;18.30;83.00;;;;;;5113055;27;20050;-78
2021/08/07 06:07:43;;;;;;;1.85;0.50;;;18.30;83.70;;;;;;5092242;28;20475;-78
2021/08/07 06:10:10;;;;;;;1.20;0.30;;;18.30;83.00;;;;;;5075919;28;20044;-78
2021/08/07 06:12:40;;;;;;;0.68;0.25;;;18.30;83.00;;;;;;5112923;28;20064;-78
2021/08/07 06:15:07;;;;;;;1.48;0.30;;;18.30;83.00;;;;;;5102543;28;20043;-78
2021/08/07 06:17:38;;;;;;;1.45;0.35;;;18.40;82.90;;;;;;5113106;28;20382;-78
2021/08/07 06:20:11;;;;;;;1.05;0.30;;;18.50;82.80;;;;;;5120479;27;20405;-78
2021/08/07 06:22:43;;;;;;;1.65;0.28;;;18.60;82.60;;;;;;5081945;28;20063;-77
2021/08/07 06:25:10;;;;;;;0.75;0.30;;;18.70;82.90;;;;;;5102439;28;20479;-78
2021/08/07 06:27:39;;;;;;;0.40;0.20;;;18.80;82.10;;;;;;5110198;27;20449;-78
2021/08/07 06:30:07;;;;;;;0.45;0.30;;;18.80;82.00;;;;;;5104052;28;20097;-78
2021/08/07 06:32:35;;;;;;;0.45;0.30;;;18.80;81.80;;;;;;5129673;27;20050;-78
2021/08/07 06:35:02;;;;;;;3.03;0.40;;;18.90;81.80;;;;;;5090432;28;20436;-78
2021/08/07 06:37:30;;;;;;;4.43;0.43;;;19.00;81.70;;;;;;5113139;28;20093;-78
2021/08/07 06:39:57;;;;;;;2.20;0.45;;;19.20;81.30;;;;;;5096234;28;20046;-78
2021/08/07 06:42:24;;;;;;;0.68;0.30;;;19.30;80.70;;;;;;5085910;28;20135;-78
2021/08/07 06:45:00;;;;;;;2.55;0.43;;;19.40;80.60;;;;;;5095169;28;20036;-82
2021/08/07 06:47:27;;;;;;;1.05;0.20;;;19.60;80.20;;;;;;5080723;28;20054;-83
2021/08/07 06:49:55;;;;;;;0.57;0.30;;;19.70;80.00;;;;;;5079196;28;20035;-83
2021/08/07 06:52:22;;;;;;;0.30;0.20;;;19.80;79.90;;;;;;5069589;28;20044;-78
2021/08/07 06:54:51;;;;;;;2.50;0.30;;;19.80;79.70;;;;;;5095381;28;20043;-78
2021/08/07 06:57:20;;;;;;;1.45;0.35;;;19.70;79.60;;;;;;5107446;28;20075;-78
2021/08/07 06:59:50;;;;;;;2.05;0.40;;;19.70;79.20;;;;;;5081148;28;20088;-78
2021/08/07 07:02:19;;;;;;;0.65;0.30;;;19.70;79.00;;;;;;5111908;28;20399;-78
2021/08/07 07:04:49;;;;;;;0.80;0.20;;;19.70;79.00;;;;;;5110135;28;20032;-78
2021/08/07 07:07:19;;;;;;;1.27;0.50;;;19.80;78.50;;;;;;5102596;28;20123;-78
2021/08/07 07:09:47;;;;;;;1.50;0.35;;;20.00;78.30;;;;;;5108919;28;20043;-78
2021/08/07 07:12:17;;;;;;;1.42;0.30;;;20.20;77.70;;;;;;5106668;28;20078;-77
2021/08/07 07:14:45;;;;;;;1.15;0.30;;;20.40;77.60;;;;;;5107852;28;20075;-77
2021/08/07 07:17:13;;;;;;;1.27;0.25;;;20.60;77.20;;;;;;5074020;28;20044;-82
2021/08/07 07:19:40;;;;;;;0.82;0.20;;;20.80;76.80;;;;;;5095442;28;20043;-81
2021/08/07 07:22:07;;;;;;;1.83;0.20;;;20.90;76.10;;;;;;5095011;28;20043;-81
2021/08/07 07:24:35;;;;;;;1.45;0.30;;;21.00;76.10;;;;;;5095483;28;20499;-81
2021/08/07 07:27:03;;;;;;;1.05;0.17;;;21.10;75.90;;;;;;5078710;28;20062;-81
2021/08/07 07:29:30;;;;;;;0.75;0.22;;;21.10;75.70;;;;;;5108025;28;20487;-82
2021/08/07 07:31:57;;;;;;;1.52;0.40;;;21.20;75.10;;;;;;5078313;28;20131;-81
2021/08/07 07:34:24;;;;;;;1.08;0.30;;;21.20;74.50;;;;;;5112081;28;20075;-79
2021/08/07 07:36:52;;;;;;;2.00;0.30;;;21.30;74.10;;;;;;5088245;27;20136;-82
2021/08/07 07:39:19;;;;;;;0.60;0.20;;;21.40;73.90;;;;;;5114668;27;20035;-81
2021/08/07 07:41:46;;;;;;;2.00;0.30;;;21.50;73.80;;;;;;5083036;28;20126;-81
2021/08/07 07:44:13;;;;;;;1.45;0.20;;;21.70;73.40;;;;;;5099409;28;20075;-81
2021/08/07 07:46:40;;;;;;;1.13;0.10;;;21.70;73.00;;;;;;5114364;28;20121;-82
2021/08/07 07:49:08;;;;;;;1.77;0.30;;;21.70;73.00;;;;;;5096792;27;20423;-81
2021/08/07 07:51:35;;;;;;;1.13;0.20;;;21.80;73.00;;;;;;5107433;27;20484;-81
2021/08/07 07:54:02;;;;;;;1.30;0.30;;;21.80;72.50;;;;;;5092419;28;20067;-80
2021/08/07 07:56:30;;;;;;;1.77;0.40;;;21.80;72.20;;;;;;5103876;28;20036;-80
2021/08/07 07:58:58;;;;;;;1.58;0.30;;;21.70;70.90;;;;;;5097939;28;20043;-81
2021/08/07 08:01:28;;;;;;;1.35;0.45;;;21.60;70.40;;;;;;5082317;28;20101;-81
2021/08/07 08:03:55;;;;;;;2.05;0.20;;;21.70;70.90;;;;;;5115933;28;20526;-81
2021/08/07 08:06:23;;;;;;;2.47;0.30;;;21.80;70.90;;;;;;5092902;28;20101;-81
2021/08/07 08:08:50;;;;;;;0.70;0.20;;;22.00;70.00;;;;;;5093025;28;20040;-81
2021/08/07 08:11:17;;;;;;;0.98;0.20;;;22.10;69.70;;;;;;5097402;28;20097;-80
2021/08/07 08:13:44;;;;;;;2.28;0.50;;;22.10;67.70;;;;;;5095424;28;20089;-77
2021/08/07 08:16:11;;;;;;;2.47;0.50;;;22.20;68.30;;;;;;5098593;28;20051;-78
2021/08/07 08:18:40;;;;;;;0.40;0.20;;;22.30;67.90;;;;;;5115345;28;20551;-78
2021/08/07 08:21:07;;;;;;;2.15;0.20;;;22.30;68.20;;;;;;5115526;28;20499;-78
2021/08/07 08:23:35;;;;;;;1.02;0.10;;;22.50;68.30;;;;;;5090471;28;20036;-78
2021/08/07 08:26:02;;;;;;;0.60;0.20;;;22.60;68.40;;;;;;5113390;28;20039;-77
2021/08/07 08:28:30;;;;;;;1.95;0.20;;;22.70;68.40;;;;;;5098572;28;20051;-77
2021/08/07 08:30:57;;;;;;;1.02;0.15;;;22.80;68.30;;;;;;5113620;28;20236;-77
2021/08/07 08:33:26;;;;;;;0.98;0.20;;;22.90;68.50;;;;;;5081973;28;20085;-77
2021/08/07 08:35:54;;;;;;;2.20;0.40;;;23.00;68.20;;;;;;5096707;28;20503;-76
2021/08/07 08:38:22;;;;;;;1.70;0.30;;;23.00;67.80;;;;;;5094847;28;20499;-77
2021/08/07 08:40:59;;;;;;;1.13;0.20;;;23.20;68.00;;;;;;5110055;28;20063;-78
2021/08/07 08:43:28;;;;;;;0.60;0.30;;;23.40;68.00;;;;;;5098622;28;20043;-78
2021/08/07 08:45:55;;;;;;;0.82;0.20;;;23.50;67.90;;;;;;5129451;27;20043;-78
2021/08/07 08:48:23;;;;;;;0.65;0.20;;;23.70;67.80;;;;;;5114990;28;20028;-78
2021/08/07 08:50:54;;;;;;;1.02;0.20;;;23.80;67.60;;;;;;5115266;27;20535;-78
2021/08/07 08:53:22;;;;;;;1.15;0.30;;;23.80;67.40;;;;;;5115086;27;20044;-78
2021/08/07 08:55:49;;;;;;;0.32;0.13;;;23.70;67.60;;;;;;5086584;28;20040;-78
2021/08/07 08:58:16;;;;;;;1.10;0.20;;;23.80;68.30;;;;;;5116813;27;20032;-78
2021/08/07 09:00:45;;;;;;;2.10;0.10;;;23.80;67.50;;;;;;5081621;28;20051;-78
2021/08/07 09:03:14;;;;;;;1.55;0.40;;;23.70;67.40;;;;;;5116696;27;20146;-78
2021/08/07 09:05:41;;;;;;;0.80;0.22;;;23.70;67.10;;;;;;5116225;28;20065;-78
2021/08/07 09:08:09;;;;;;;1.75;0.30;;;23.50;67.20;;;;;;5102498;28;20437;-78
2021/08/07 09:10:37;;;;;;;0.50;0.30;;;23.50;67.60;;;;;;5099622;28;20074;-78
2021/08/07 09:13:06;;;;;;;1.17;0.10;;;23.60;67.50;;;;;;5113264;28;20114;-78
2021/08/07 09:15:38;;;;;;;1.95;0.38;;;23.50;67.60;;;;;;5114652;28;20044;-78
2021/08/07 09:18:21;;;;;;;1.48;0.30;;;23.60;67.50;;;;;;5115891;27;20055;-77
2021/08/07 09:20:57;;;;;;;1.48;0.30;;;23.60;67.30;;;;;;5111183;27;20052;-77
2021/08/07 09:23:35;;;;;;;1.15;0.28;;;23.50;67.50;;;;;;5095020;27;20051;-78
2021/08/07 09:26:20;;;;;;;1.15;0.20;;;23.40;67.50;;;;;;5102042;28;20031;-77
2021/08/07 09:28:55;;;;;;;0.52;0.10;;;23.40;67.60;;;;;;5112060;27;20051;-78
2021/08/07 09:31:29;;;;;;;0.65;0.25;;;23.40;67.80;;;;;;5106525;28;20061;-80
2021/08/07 09:34:17;;;;;;;1.15;0.30;;;23.30;67.90;;;;;;5080630;28;20070;-79
2021/08/07 09:36:50;;;;;;;0.85;0.20;;;23.30;67.80;;;;;;5104162;28;20048;-78
2021/08/07 09:39:53;;;;;;;;;;;23.20;67.90;;;;;;5095645;27;20047;-77
2021/08/07 09:42:27;;;;;;;1.48;0.10;;;23.20;68.20;;;;;;5062028;28;19928;-76
2021/08/07 09:45:09;;;;;;;1.92;0.50;;;23.00;68.30;;;;;;5112681;28;20046;-75
2021/08/07 09:47:46;;;;;;;2.05;0.30;;;22.90;68.10;;;;;;5096813;28;20128;-76
2021/08/07 09:50:21;;;;;;;0.43;0.20;;;22.70;68.30;;;;;;5114485;27;20044;-76
2021/08/07 09:52:49;;;;;;;0.52;0.20;;;22.80;68.60;;;;;;5112905;28;20036;-77
2021/08/07 09:55:16;;;;;;;0.88;0.17;;;23.00;68.40;;;;;;5096384;28;20032;-77
2021/08/07 09:57:43;;;;;;;1.15;0.30;;;23.30;67.80;;;;;;5096392;28;20435;-78
2021/08/07 10:00:11;;;;;;;0.80;0.20;;;23.60;67.40;;;;;;5079642;28;20035;-78
2021/08/07 10:02:44;;;;;;;0.20;0.10;;;23.70;67.10;;;;;;5114334;27;20047;-78
2021/08/07 10:05:24;;;;;;;0.57;0.10;;;23.80;67.00;;;;;;5084461;28;20097;-79
2021/08/07 10:08:07;;;;;;;0.28;0.10;;;23.80;66.90;;;;;;5104498;28;20052;-78
2021/08/07 10:10:49;;;;;;;0.28;0.25;;;23.90;67.00;;;;;;5108555;27;20052;-78
2021/08/07 10:13:20;;;;;;;1.27;0.30;;;23.80;67.00;;;;;;5091999;27;20113;-77
2021/08/07 10:16:00;;;;;;;1.42;0.40;;;23.70;66.80;;;;;;5097033;28;20055;-79
2021/08/07 10:18:32;;;;;;;1.38;0.40;;;23.50;66.80;;;;;;5096176;28;20035;-78
2021/08/07 10:21:03;;;;;;;0.63;0.40;;;23.30;67.20;;;;;;5094528;28;20068;-78
2021/08/07 10:23:35;;;;;;;0.95;0.30;;;23.30;67.60;;;;;;5103873;28;20032;-79
2021/08/07 10:26:04;;;;;;;1.80;0.38;;;23.30;67.30;;;;;;5112678;28;20054;-79
2021/08/07 10:28:34;;;;;;;1.35;0.20;;;23.40;67.00;;;;;;5112660;28;20048;-79
2021/08/07 10:31:03;;;;;;;1.15;0.40;;;23.60;66.90;;;;;;5107478;28;20043;-79
2021/08/07 10:33:34;;;;;;;0.68;0.20;;;23.90;66.40;;;;;;5112411;28;20047;-79
2021/08/07 10:36:01;;;;;;;0.90;0.20;;;24.20;65.90;;;;;;5114582;27;20055;-79
2021/08/07 10:38:29;;;;;;;1.13;0.30;;;24.50;65.60;;;;;;5113250;27;20032;-77
2021/08/07 10:40:57;;;;;;;1.38;0.40;;;24.80;65.80;;;;;;5109583;27;20035;-78
2021/08/07 10:43:24;;;;;;;0.17;0.17;;;25.00;64.90;;;;;;5112855;28;20104;-79
2021/08/07 10:45:52;;;;;;;1.48;0.30;;;25.00;64.70;;;;;;5095439;28;20387;-79
2021/08/07 10:48:39;;;;;;;2.25;0.45;;;24.90;64.20;;;;;;5089248;28;20499;-78
2021/08/07 10:51:23;;;;;;;1.63;0.25;;;24.70;64.40;;;;;;5104081;27;20435;-80
2021/08/07 10:53:54;;;;;;;;;;;24.40;64.90;;;;;;5112129;28;20047;-77
2021/08/07 10:56:40;;;;;;;1.08;0.22;;;24.10;65.60;;;;;;5110079;28;19927;-78
2021/08/07 10:59:10;;;;;;;0.88;0.35;;;23.90;65.90;;;;;;5112443;27;20035;-77
2021/08/07 11:01:41;;;;;;;1.50;0.45;;;24.00;65.40;;;;;;5107571;28;20073;-77
2021/08/07 11:04:11;;;;;;;1.83;0.40;;;24.40;63.40;;;;;;5108304;28;20446;-77
2021/08/07 11:06:38;;;;;;;1.17;0.30;;;24.80;63.00;;;;;;5094444;28;20047;-77
2021/08/07 11:09:22;;;;;;;0.95;0.22;;;25.30;62.00;;;;;;5112752;28;20032;-76
2021/08/07 11:12:10;;;;;;;0.52;0.17;;;25.80;60.90;;;;;;5111784;28;20044;-77
2021/08/07 11:14:40;;;;;;;1.63;0.20;;;26.10;60.60;;;;;;5105945;28;20047;-76
2021/08/07 11:17:07;;;;;;;2.45;0.22;;;26.30;60.20;;;;;;5110030;28;20120;-77
2021/08/07 11:20:05;;;;;;;0.75;0.30;;;26.50;59.80;;;;;;5106307;28;20115;-76
2021/08/07 11:22:32;;;;;;;0.95;0.30;;;26.70;59.40;;;;;;5123025;27;20097;-77
2021/08/07 11:25:01;;;;;;;1.85;0.30;;;26.70;59.00;;;;;;5113980;27;20060;-77
2021/08/07 11:27:58;;;;;;;2.30;0.30;;;26.70;58.90;;;;;;5105804;28;20119;-77
2021/08/07 11:30:27;;;;;;;0.40;0.20;;;26.80;58.40;;;;;;5129732;27;20100;-77
2021/08/07 11:35:31;;;;;;;1.38;0.30;;;26.70;57.20;;;;;;5103051;28;20075;-77
2021/08/07 11:38:15;;;;;;;2.25;0.30;;;26.60;57.00;;;;;;5086245;28;20044;-77
2021/08/07 11:41:06;;;;;;;1.45;0.30;;;26.70;56.70;;;;;;5106492;28;20524;-76
2021/08/07 11:43:43;;;;;;;1.08;0.20;;;26.80;56.70;;;;;;5108484;28;20043;-77
2021/08/07 11:46:16;;;;;;;1.50;0.13;;;26.60;56.70;;;;;;5106194;28;20047;-80
2021/08/07 11:48:49;;;;;;;1.15;0.38;;;26.60;57.00;;;;;;5111204;28;20044;-80
2021/08/07 11:51:26;;;;;;;0.95;0.20;;;26.70;56.40;;;;;;5111376;28;20417;-81
2021/08/07 11:53:53;;;;;;;0.95;0.20;;;26.90;56.50;;;;;;5079219;28;20052;-82
2021/08/07 11:56:22;;;;;;;1.42;0.30;;;27.20;55.80;;;;;;5109288;28;20048;-85
2021/08/07 11:58:51;;;;;;;1.45;0.30;;;27.40;55.50;;;;;;5091982;28;20114;-83
2021/08/07 12:01:21;;;;;;;2.42;0.40;;;27.70;55.10;;;;;;5111776;28;20130;-83
2021/08/07 12:03:51;;;;;;;1.15;0.30;;;28.00;54.80;;;;;;5095378;28;20051;-82
2021/08/07 12:09:32;;;;;;;2.60;0.40;;;27.30;54.50;;;;;;5103471;28;20043;-84
2021/08/07 12:12:01;;;;;;;0.80;0.20;;;27.50;55.30;;;;;;5105167;28;20673;-90
2021/08/07 12:14:28;;;;;;;0.63;0.13;;;28.00;54.40;;;;;;5090769;28;20048;-84
2021/08/07 12:17:05;;;;;;;0.80;0.17;;;28.20;53.50;;;;;;5099904;28;20040;-84
2021/08/07 12:19:32;;;;;;;0.50;0.17;;;28.70;53.40;;;;;;5105443;28;20118;-83
2021/08/07 12:22:05;;;;;;;1.67;0.32;;;29.10;53.00;;;;;;5104850;28;20032;-83
2021/08/07 12:24:32;;;;;;;0.70;0.20;;;29.30;52.10;;;;;;5086026;28;20055;-82
2021/08/07 12:26:59;;;;;;;1.65;0.20;;;29.40;51.70;;;;;;5083698;28;20044;-82
2021/08/07 12:29:30;;;;;;;0.63;0.17;;;28.70;52.30;;;;;;5112373;28;20111;-79
2021/08/07 12:32:02;;;;;;;1.15;0.20;;;29.10;52.50;;;;;;5109066;28;21591;-79
2021/08/07 12:34:40;;;;;;;0.95;0.20;;;29.10;51.30;;;;;;5093829;28;20028;-89
2021/08/07 12:37:17;;;;;;;1.48;0.20;;;29.10;51.50;;;;;;5116119;28;20081;-88
2021/08/07 12:39:45;;;;;;;0.55;0.13;;;28.20;52.20;;;;;;5083337;28;20490;-85
2021/08/07 12:42:31;;;;;;;0.17;0.10;;;27.50;53.40;;;;;;5116402;28;20036;-86
2021/08/07 12:45:07;;;;;;;1.95;0.20;;;28.40;53.10;;;;;;5090611;28;20077;-90
2021/08/07 12:47:35;;;;;;;0.82;0.10;;;28.60;51.90;;;;;;5118421;27;20040;-89
2021/08/07 12:50:15;;;;;;;0.57;0.20;;;28.90;51.40;;;;;;5106583;28;20047;-90
2021/08/07 12:53:14;;;;;;;0.55;0.10;;;28.80;50.60;;;;;;5111184;28;20071;-85
2021/08/07 12:55:49;;;;;;;0.30;0.10;;;28.80;50.70;;;;;;5032143;28;20058;-86
2021/08/07 12:58:20;;;;;;;0.70;0.17;;;29.40;50.30;;;;;;5093402;28;20049;-87
2021/08/07 13:00:49;;;;;;;0.43;0.08;;;29.20;50.00;;;;;;5108373;28;20044;-81
2021/08/07 13:03:16;;;;;;;0.80;0.20;;;28.90;50.50;;;;;;5109025;28;20040;-80
2021/08/07 13:05:43;;;;;;;0.45;0.17;;;28.50;50.50;;;;;;5108212;28;20527;-80
2021/08/07 13:08:31;;;;;;;0.30;0.10;;;28.00;51.10;;;;;;5105722;28;20060;-82
2021/08/07 13:11:21;;;;;;;0.65;0.20;;;27.50;51.80;;;;;;5102905;28;20101;-85
2021/08/07 13:13:56;;;;;;;1.00;0.10;;;27.00;52.40;;;;;;5110476;27;20055;-85
2021/08/07 13:16:43;;;;;;;1.25;0.20;;;26.80;52.90;;;;;;5092155;28;20040;-92